Accueil
METAR-TAF:

METAR-TAF

Aéroports :

Goeree Le, Pays-Bas

Plate-forme pétrolière

latitude: 51-55-33N, longitude: 3-40-12E, altitude: 19 m

Observation

Le bulletin a été fait il y a 26 minutes, à 02:55 UTC
Vent 8 kt de sud avec des rafales jusqu'à 09 kt
Température 16°C
Humidité 88%
Pression 1010 hPa
Visibilité: 8000 m

METAR: EHSC 190255Z AUTO 17008G09KT 8000 ///////// 16/14 Q1010 W16/H6

Heure: 05:21 (03:21 UTC)


TAF: absent

Observations et prévisions météorologiques de plus de 4000 aéroports (messages METAR et TAF).

Les stations disponibles sont représentées par des disques jaunes et rouges sur la carte.

Passer la souris dessus pour voir le nom de la station.

Cliquer dessus pour voir les observations et prévisions météorologiques.

Pour changer de carte: cliquez sur les boutons verts avec une croix noire pour zoomer, sur le bouton vert avec un tiret pour effectuer un zoom arrière, ou sur les flèches vertes pour les cartes adjacentes.


METAR-TAF: